sensor_id;sensor_type;location;lat;lon;timestamp;temperature;humidity
29571;DHT22;16814;52.118;11.436;2023-06-22T00:01:49;19.80;99.90
29571;DHT22;16814;52.118;11.436;2023-06-22T00:04:19;19.80;99.90
29571;DHT22;16814;52.118;11.436;2023-06-22T00:06:46;19.70;99.90
29571;DHT22;16814;52.118;11.436;2023-06-22T00:09:13;19.70;99.90
29571;DHT22;16814;52.118;11.436;2023-06-22T00:11:49;19.60;99.90
29571;DHT22;16814;52.118;11.436;2023-06-22T00:14:16;19.60;99.90
29571;DHT22;16814;52.118;11.436;2023-06-22T00:16:42;19.50;99.90
29571;DHT22;16814;52.118;11.436;2023-06-22T00:19:11;19.60;99.90
29571;DHT22;16814;52.118;11.436;2023-06-22T00:21:40;19.60;99.90
29571;DHT22;16814;52.118;11.436;2023-06-22T00:24:05;19.60;99.90
29571;DHT22;16814;52.118;11.436;2023-06-22T00:26:33;19.60;99.90
29571;DHT22;16814;52.118;11.436;2023-06-22T00:29:01;19.60;99.90
29571;DHT22;16814;52.118;11.436;2023-06-22T00:31:28;19.70;99.90
29571;DHT22;16814;52.118;11.436;2023-06-22T00:33:54;19.60;99.90
29571;DHT22;16814;52.118;11.436;2023-06-22T00:36:22;19.70;99.90
29571;DHT22;16814;52.118;11.436;2023-06-22T00:38:51;19.80;99.90
29571;DHT22;16814;52.118;11.436;2023-06-22T00:41:18;19.80;99.90
29571;DHT22;16814;52.118;11.436;2023-06-22T00:43:46;19.70;99.90
29571;DHT22;16814;52.118;11.436;2023-06-22T00:46:16;19.70;99.90
29571;DHT22;16814;52.118;11.436;2023-06-22T00:48:43;19.70;99.90
29571;DHT22;16814;52.118;11.436;2023-06-22T00:51:14;19.70;99.90
29571;DHT22;16814;52.118;11.436;2023-06-22T00:53:39;19.60;99.90
29571;DHT22;16814;52.118;11.436;2023-06-22T00:56:07;19.50;99.90
29571;DHT22;16814;52.118;11.436;2023-06-22T00:58:36;19.30;99.90
29571;DHT22;16814;52.118;11.436;2023-06-22T01:01:02;19.30;99.90
29571;DHT22;16814;52.118;11.436;2023-06-22T01:03:30;19.60;99.90
29571;DHT22;16814;52.118;11.436;2023-06-22T01:06:10;19.50;99.90
29571;DHT22;16814;52.118;11.436;2023-06-22T01:09:22;19.50;99.90
29571;DHT22;16814;52.118;11.436;2023-06-22T01:12:04;19.50;99.90
29571;DHT22;16814;52.118;11.436;2023-06-22T01:14:50;19.40;99.90
29571;DHT22;16814;52.118;11.436;2023-06-22T01:17:22;19.30;99.90
29571;DHT22;16814;52.118;11.436;2023-06-22T01:19:54;19.30;99.90
29571;DHT22;16814;52.118;11.436;2023-06-22T01:22:29;19.30;99.90
29571;DHT22;16814;52.118;11.436;2023-06-22T01:25:26;19.30;99.90
29571;DHT22;16814;52.118;11.436;2023-06-22T01:28:19;19.10;99.90
29571;DHT22;16814;52.118;11.436;2023-06-22T01:30:49;18.90;99.90
29571;DHT22;16814;52.118;11.436;2023-06-22T01:33:40;18.80;99.90
29571;DHT22;16814;52.118;11.436;2023-06-22T01:36:08;18.60;99.90
29571;DHT22;16814;52.118;11.436;2023-06-22T01:38:43;18.50;99.90
29571;DHT22;16814;52.118;11.436;2023-06-22T01:41:11;18.50;99.90
29571;DHT22;16814;52.118;11.436;2023-06-22T01:43:43;18.40;99.90
29571;DHT22;16814;52.118;11.436;2023-06-22T01:46:12;18.50;99.90
29571;DHT22;16814;52.118;11.436;2023-06-22T01:48:39;18.30;99.90
29571;DHT22;16814;52.118;11.436;2023-06-22T01:51:07;18.30;99.90
29571;DHT22;16814;52.118;11.436;2023-06-22T01:53:36;18.20;99.90
29571;DHT22;16814;52.118;11.436;2023-06-22T01:56:04;18.30;99.90
29571;DHT22;16814;52.118;11.436;2023-06-22T01:58:34;18.40;99.90
29571;DHT22;16814;52.118;11.436;2023-06-22T02:01:20;18.50;99.90
29571;DHT22;16814;52.118;11.436;2023-06-22T02:04:09;18.50;99.90
29571;DHT22;16814;52.118;11.436;2023-06-22T02:06:44;18.50;99.90
29571;DHT22;16814;52.118;11.436;2023-06-22T02:09:15;18.50;99.90
29571;DHT22;16814;52.118;11.436;2023-06-22T02:11:45;18.50;99.90
29571;DHT22;16814;52.118;11.436;2023-06-22T02:14:23;18.50;99.90
29571;DHT22;16814;52.118;11.436;2023-06-22T02:16:54;18.30;99.90
29571;DHT22;16814;52.118;11.436;2023-06-22T02:19:28;18.30;99.90
29571;DHT22;16814;52.118;11.436;2023-06-22T02:22:00;18.40;99.90
29571;DHT22;16814;52.118;11.436;2023-06-22T02:24:37;18.50;99.90
29571;DHT22;16814;52.118;11.436;2023-06-22T02:27:05;18.40;99.90
29571;DHT22;16814;52.118;11.436;2023-06-22T02:29:36;18.30;99.90
29571;DHT22;16814;52.118;11.436;2023-06-22T02:32:06;18.30;99.90
29571;DHT22;16814;52.118;11.436;2023-06-22T02:34:36;18.30;99.90
29571;DHT22;16814;52.118;11.436;2023-06-22T02:37:03;18.30;99.90
29571;DHT22;16814;52.118;11.436;2023-06-22T02:39:33;18.10;99.90
29571;DHT22;16814;52.118;11.436;2023-06-22T02:41:59;18.10;99.90
29571;DHT22;16814;52.118;11.436;2023-06-22T02:44:27;18.10;99.90
29571;DHT22;16814;52.118;11.436;2023-06-22T02:46:55;18.10;99.90
29571;DHT22;16814;52.118;11.436;2023-06-22T02:49:22;18.10;99.90
29571;DHT22;16814;52.118;11.436;2023-06-22T02:51:50;18.20;99.90
29571;DHT22;16814;52.118;11.436;2023-06-22T02:54:18;18.20;99.90
29571;DHT22;16814;52.118;11.436;2023-06-22T02:56:54;18.20;99.90
29571;DHT22;16814;52.118;11.436;2023-06-22T02:59:20;18.60;99.90
29571;DHT22;16814;52.118;11.436;2023-06-22T03:01:53;18.30;99.90
29571;DHT22;16814;52.118;11.436;2023-06-22T03:04:20;18.30;99.90
29571;DHT22;16814;52.118;11.436;2023-06-22T03:06:48;18.30;99.90
29571;DHT22;16814;52.118;11.436;2023-06-22T03:09:18;18.20;99.90
29571;DHT22;16814;52.118;11.436;2023-06-22T03:11:47;18.30;99.90
29571;DHT22;16814;52.118;11.436;2023-06-22T03:14:14;18.20;99.90
29571;DHT22;16814;52.118;11.436;2023-06-22T03:16:41;18.30;99.90
29571;DHT22;16814;52.118;11.436;2023-06-22T03:19:08;18.30;99.90
29571;DHT22;16814;52.118;11.436;2023-06-22T03:21:35;18.20;99.90
29571;DHT22;16814;52.118;11.436;2023-06-22T03:24:10;18.30;99.90
29571;DHT22;16814;52.118;11.436;2023-06-22T03:26:38;18.30;99.90
29571;DHT22;16814;52.118;11.436;2023-06-22T03:29:05;18.30;99.90
29571;DHT22;16814;52.118;11.436;2023-06-22T03:31:34;18.20;99.90
29571;DHT22;16814;52.118;11.436;2023-06-22T03:33:59;18.30;99.90
29571;DHT22;16814;52.118;11.436;2023-06-22T03:36:25;18.30;99.90
29571;DHT22;16814;52.118;11.436;2023-06-22T03:38:53;18.40;99.90
29571;DHT22;16814;52.118;11.436;2023-06-22T03:41:20;18.40;99.90
29571;DHT22;16814;52.118;11.436;2023-06-22T03:43:46;18.50;99.90
29571;DHT22;16814;52.118;11.436;2023-06-22T03:46:13;18.50;99.90
29571;DHT22;16814;52.118;11.436;2023-06-22T03:48:41;18.50;99.90
29571;DHT22;16814;52.118;11.436;2023-06-22T03:51:08;18.50;99.90
29571;DHT22;16814;52.118;11.436;2023-06-22T03:53:35;18.60;99.90
29571;DHT22;16814;52.118;11.436;2023-06-22T03:56:02;18.60;99.90
29571;DHT22;16814;52.118;11.436;2023-06-22T03:58:28;18.50;99.90
29571;DHT22;16814;52.118;11.436;2023-06-22T04:01:00;18.50;99.90
29571;DHT22;16814;52.118;11.436;2023-06-22T04:03:27;18.70;99.90
29571;DHT22;16814;52.118;11.436;2023-06-22T04:05:54;18.70;99.90
29571;DHT22;16814;52.118;11.436;2023-06-22T04:08:20;18.70;99.90
29571;DHT22;16814;52.118;11.436;2023-06-22T04:10:51;18.70;99.90
29571;DHT22;16814;52.118;11.436;2023-06-22T04:13:17;18.70;99.90
29571;DHT22;16814;52.118;11.436;2023-06-22T04:15:43;18.70;99.90
29571;DHT22;16814;52.118;11.436;2023-06-22T04:18:11;18.70;99.90
29571;DHT22;16814;52.118;11.436;2023-06-22T04:20:37;18.60;99.90
29571;DHT22;16814;52.118;11.436;2023-06-22T04:23:05;18.60;99.90
29571;DHT22;16814;52.118;11.436;2023-06-22T04:25:30;18.60;99.90
29571;DHT22;16814;52.118;11.436;2023-06-22T04:27:56;18.80;99.90
29571;DHT22;16814;52.118;11.436;2023-06-22T04:30:24;18.80;99.90
29571;DHT22;16814;52.118;11.436;2023-06-22T04:32:51;18.80;99.90
29571;DHT22;16814;52.118;11.436;2023-06-22T04:35:25;18.80;99.90
29571;DHT22;16814;52.118;11.436;2023-06-22T04:37:55;19.00;99.90
29571;DHT22;16814;52.118;11.436;2023-06-22T04:40:23;19.20;99.90
29571;DHT22;16814;52.118;11.436;2023-06-22T04:42:50;19.20;99.90
29571;DHT22;16814;52.118;11.436;2023-06-22T04:45:21;19.30;99.90
29571;DHT22;16814;52.118;11.436;2023-06-22T04:47:49;19.50;99.90
29571;DHT22;16814;52.118;11.436;2023-06-22T04:50:16;19.50;99.90
29571;DHT22;16814;52.118;11.436;2023-06-22T04:52:49;19.60;99.90
29571;DHT22;16814;52.118;11.436;2023-06-22T04:55:26;19.70;99.90
29571;DHT22;16814;52.118;11.436;2023-06-22T04:57:53;19.90;99.90
29571;DHT22;16814;52.118;11.436;2023-06-22T05:00:21;19.70;99.90
29571;DHT22;16814;52.118;11.436;2023-06-22T05:02:51;19.60;99.90
29571;DHT22;16814;52.118;11.436;2023-06-22T05:05:18;19.60;99.90
29571;DHT22;16814;52.118;11.436;2023-06-22T05:07:51;19.60;99.90
29571;DHT22;16814;52.118;11.436;2023-06-22T05:10:24;19.50;99.90
29571;DHT22;16814;52.118;11.436;2023-06-22T05:12:51;19.60;99.90
29571;DHT22;16814;52.118;11.436;2023-06-22T05:15:17;19.60;99.90
29571;DHT22;16814;52.118;11.436;2023-06-22T05:17:46;19.70;99.90
29571;DHT22;16814;52.118;11.436;2023-06-22T05:20:14;19.60;99.90
29571;DHT22;16814;52.118;11.436;2023-06-22T05:22:46;19.60;99.90
29571;DHT22;16814;52.118;11.436;2023-06-22T05:25:13;19.60;99.90
29571;DHT22;16814;52.118;11.436;2023-06-22T05:27:41;19.70;99.90
29571;DHT22;16814;52.118;11.436;2023-06-22T05:30:09;19.50;99.90
29571;DHT22;16814;52.118;11.436;2023-06-22T05:32:38;19.60;99.90
29571;DHT22;16814;52.118;11.436;2023-06-22T05:35:05;19.70;99.90
29571;DHT22;16814;52.118;11.436;2023-06-22T05:37:31;19.70;99.90
29571;DHT22;16814;52.118;11.436;2023-06-22T05:39:58;20.10;99.90
29571;DHT22;16814;52.118;11.436;2023-06-22T05:42:25;20.70;99.90
29571;DHT22;16814;52.118;11.436;2023-06-22T05:44:54;21.00;99.90
29571;DHT22;16814;52.118;11.436;2023-06-22T05:47:19;21.00;99.90
29571;DHT22;16814;52.118;11.436;2023-06-22T05:49:47;20.90;99.90
29571;DHT22;16814;52.118;11.436;2023-06-22T05:52:15;20.80;99.90
29571;DHT22;16814;52.118;11.436;2023-06-22T05:54:44;20.70;99.90
29571;DHT22;16814;52.118;11.436;2023-06-22T05:57:11;20.60;99.90
29571;DHT22;16814;52.118;11.436;2023-06-22T05:59:39;20.60;99.90
29571;DHT22;16814;52.118;11.436;2023-06-22T06:02:04;20.70;99.90
29571;DHT22;16814;52.118;11.436;2023-06-22T06:04:32;20.70;99.90
29571;DHT22;16814;52.118;11.436;2023-06-22T06:07:00;20.70;99.90
29571;DHT22;16814;52.118;11.436;2023-06-22T06:09:27;20.60;99.90
29571;DHT22;16814;52.118;11.436;2023-06-22T06:11:54;20.70;99.90
29571;DHT22;16814;52.118;11.436;2023-06-22T06:14:21;20.70;99.90
29571;DHT22;16814;52.118;11.436;2023-06-22T06:16:49;20.70;99.90
29571;DHT22;16814;52.118;11.436;2023-06-22T06:19:16;20.80;99.90
29571;DHT22;16814;52.118;11.436;2023-06-22T06:21:43;20.90;99.90
29571;DHT22;16814;52.118;11.436;2023-06-22T06:24:09;20.90;99.90
29571;DHT22;16814;52.118;11.436;2023-06-22T06:26:37;21.00;99.90
29571;DHT22;16814;52.118;11.436;2023-06-22T06:29:04;21.30;99.90
29571;DHT22;16814;52.118;11.436;2023-06-22T06:31:32;21.50;99.90
29571;DHT22;16814;52.118;11.436;2023-06-22T06:33:59;21.70;99.90
29571;DHT22;16814;52.118;11.436;2023-06-22T06:36:26;22.00;99.90
29571;DHT22;16814;52.118;11.436;2023-06-22T06:38:53;22.30;99.90
29571;DHT22;16814;52.118;11.436;2023-06-22T06:41:20;22.60;99.90
29571;DHT22;16814;52.118;11.436;2023-06-22T06:43:48;22.80;99.90
29571;DHT22;16814;52.118;11.436;2023-06-22T06:46:19;23.10;99.90
29571;DHT22;16814;52.118;11.436;2023-06-22T06:48:47;23.10;99.90
29571;DHT22;16814;52.118;11.436;2023-06-22T06:51:14;23.10;99.90
29571;DHT22;16814;52.118;11.436;2023-06-22T06:53:40;23.00;99.90
29571;DHT22;16814;52.118;11.436;2023-06-22T06:56:05;23.00;99.90
29571;DHT22;16814;52.118;11.436;2023-06-22T06:58:33;22.90;99.90
29571;DHT22;16814;52.118;11.436;2023-06-22T07:01:02;22.90;99.90
29571;DHT22;16814;52.118;11.436;2023-06-22T07:03:29;22.90;99.90
29571;DHT22;16814;52.118;11.436;2023-06-22T07:05:56;23.10;99.90
29571;DHT22;16814;52.118;11.436;2023-06-22T07:08:23;23.20;99.90
29571;DHT22;16814;52.118;11.436;2023-06-22T07:10:50;23.40;99.90
29571;DHT22;16814;52.118;11.436;2023-06-22T07:13:17;23.60;99.90
29571;DHT22;16814;52.118;11.436;2023-06-22T07:15:42;23.70;99.90
29571;DHT22;16814;52.118;11.436;2023-06-22T07:18:09;23.50;99.90
29571;DHT22;16814;52.118;11.436;2023-06-22T07:20:36;23.70;99.90
29571;DHT22;16814;52.118;11.436;2023-06-22T07:23:04;23.70;99.90
29571;DHT22;16814;52.118;11.436;2023-06-22T07:25:30;23.80;99.90
29571;DHT22;16814;52.118;11.436;2023-06-22T07:28:05;23.70;99.90
29571;DHT22;16814;52.118;11.436;2023-06-22T07:30:35;23.80;99.90
29571;DHT22;16814;52.118;11.436;2023-06-22T07:33:02;24.10;99.90
29571;DHT22;16814;52.118;11.436;2023-06-22T07:35:33;24.50;99.90
29571;DHT22;16814;52.118;11.436;2023-06-22T07:37:59;24.80;99.90
29571;DHT22;16814;52.118;11.436;2023-06-22T07:40:26;25.00;99.90
29571;DHT22;16814;52.118;11.436;2023-06-22T07:42:54;25.40;99.90
29571;DHT22;16814;52.118;11.436;2023-06-22T07:45:21;25.10;99.90
29571;DHT22;16814;52.118;11.436;2023-06-22T07:47:47;25.60;99.90
29571;DHT22;16814;52.118;11.436;2023-06-22T07:50:30;25.90;99.90
29571;DHT22;16814;52.118;11.436;2023-06-22T07:52:57;26.00;99.90
29571;DHT22;16814;52.118;11.436;2023-06-22T07:55:24;26.00;99.90
29571;DHT22;16814;52.118;11.436;2023-06-22T07:57:52;25.90;99.90
29571;DHT22;16814;52.118;11.436;2023-06-22T08:00:20;25.90;99.90
29571;DHT22;16814;52.118;11.436;2023-06-22T08:02:47;26.10;99.90
29571;DHT22;16814;52.118;11.436;2023-06-22T08:05:14;26.00;99.90
29571;DHT22;16814;52.118;11.436;2023-06-22T08:07:43;26.30;99.90
29571;DHT22;16814;52.118;11.436;2023-06-22T08:10:12;25.90;99.90
29571;DHT22;16814;52.118;11.436;2023-06-22T08:12:44;25.70;99.90
29571;DHT22;16814;52.118;11.436;2023-06-22T08:15:12;25.40;99.90
29571;DHT22;16814;52.118;11.436;2023-06-22T08:17:43;25.20;99.90
29571;DHT22;16814;52.118;11.436;2023-06-22T08:20:13;25.20;99.90
29571;DHT22;16814;52.118;11.436;2023-06-22T08:22:41;25.10;99.90
29571;DHT22;16814;52.118;11.436;2023-06-22T08:25:08;25.20;99.90
29571;DHT22;16814;52.118;11.436;2023-06-22T08:27:36;25.30;99.90
29571;DHT22;16814;52.118;11.436;2023-06-22T08:30:05;25.40;99.90
29571;DHT22;16814;52.118;11.436;2023-06-22T08:32:36;25.80;99.90
29571;DHT22;16814;52.118;11.436;2023-06-22T08:35:05;26.10;99.90
29571;DHT22;16814;52.118;11.436;2023-06-22T08:37:34;26.30;99.90
29571;DHT22;16814;52.118;11.436;2023-06-22T08:40:04;26.40;99.90
29571;DHT22;16814;52.118;11.436;2023-06-22T08:42:40;26.40;99.90
29571;DHT22;16814;52.118;11.436;2023-06-22T08:45:07;26.40;99.90
29571;DHT22;16814;52.118;11.436;2023-06-22T08:47:35;26.30;99.90
29571;DHT22;16814;52.118;11.436;2023-06-22T08:50:15;26.40;99.90
29571;DHT22;16814;52.118;11.436;2023-06-22T08:52:43;26.60;99.90
29571;DHT22;16814;52.118;11.436;2023-06-22T08:55:11;26.80;99.90
29571;DHT22;16814;52.118;11.436;2023-06-22T08:57:39;26.80;99.90
29571;DHT22;16814;52.118;11.436;2023-06-22T09:00:09;26.80;99.90
29571;DHT22;16814;52.118;11.436;2023-06-22T09:02:46;26.60;99.90
29571;DHT22;16814;52.118;11.436;2023-06-22T09:05:14;26.50;99.90
29571;DHT22;16814;52.118;11.436;2023-06-22T09:07:45;26.40;99.90
29571;DHT22;16814;52.118;11.436;2023-06-22T09:10:11;26.40;99.90
29571;DHT22;16814;52.118;11.436;2023-06-22T09:12:43;26.50;99.90
29571;DHT22;16814;52.118;11.436;2023-06-22T09:15:10;26.50;99.90
29571;DHT22;16814;52.118;11.436;2023-06-22T09:17:36;26.50;99.90
29571;DHT22;16814;52.118;11.436;2023-06-22T09:20:05;26.40;99.90
29571;DHT22;16814;52.118;11.436;2023-06-22T09:22:35;26.30;99.90
29571;DHT22;16814;52.118;11.436;2023-06-22T09:25:04;26.10;99.90
29571;DHT22;16814;52.118;11.436;2023-06-22T09:27:37;26.30;99.90
29571;DHT22;16814;52.118;11.436;2023-06-22T09:30:06;26.50;99.90
29571;DHT22;16814;52.118;11.436;2023-06-22T09:32:33;26.50;99.90
29571;DHT22;16814;52.118;11.436;2023-06-22T09:35:04;26.60;99.90
29571;DHT22;16814;52.118;11.436;2023-06-22T09:37:32;26.80;99.90
29571;DHT22;16814;52.118;11.436;2023-06-22T09:39:59;27.00;99.90
29571;DHT22;16814;52.118;11.436;2023-06-22T09:42:25;27.10;99.90
29571;DHT22;16814;52.118;11.436;2023-06-22T09:45:01;27.50;99.90
29571;DHT22;16814;52.118;11.436;2023-06-22T09:47:30;27.60;99.90
29571;DHT22;16814;52.118;11.436;2023-06-22T09:49:57;27.60;99.90
29571;DHT22;16814;52.118;11.436;2023-06-22T09:52:27;27.50;99.90
29571;DHT22;16814;52.118;11.436;2023-06-22T09:55:04;27.60;99.90
29571;DHT22;16814;52.118;11.436;2023-06-22T09:57:32;27.90;99.90
29571;DHT22;16814;52.118;11.436;2023-06-22T09:59:59;28.30;99.90
29571;DHT22;16814;52.118;11.436;2023-06-22T10:02:26;28.80;99.90
29571;DHT22;16814;52.118;11.436;2023-06-22T10:04:52;29.00;99.90
29571;DHT22;16814;52.118;11.436;2023-06-22T10:07:19;29.10;99.90
29571;DHT22;16814;52.118;11.436;2023-06-22T10:09:46;28.70;99.90
29571;DHT22;16814;52.118;11.436;2023-06-22T10:12:14;28.30;99.90
29571;DHT22;16814;52.118;11.436;2023-06-22T10:14:41;28.20;99.90
29571;DHT22;16814;52.118;11.436;2023-06-22T10:17:07;28.00;99.90
29571;DHT22;16814;52.118;11.436;2023-06-22T10:19:34;27.70;99.90
29571;DHT22;16814;52.118;11.436;2023-06-22T10:22:11;27.60;99.90
29571;DHT22;16814;52.118;11.436;2023-06-22T10:24:38;27.70;99.90
29571;DHT22;16814;52.118;11.436;2023-06-22T10:27:11;28.10;99.90
29571;DHT22;16814;52.118;11.436;2023-06-22T10:29:39;28.40;99.90
29571;DHT22;16814;52.118;11.436;2023-06-22T10:32:07;28.60;99.90
29571;DHT22;16814;52.118;11.436;2023-06-22T10:34:34;28.60;99.90
29571;DHT22;16814;52.118;11.436;2023-06-22T10:37:01;28.70;99.90
29571;DHT22;16814;52.118;11.436;2023-06-22T10:39:29;28.60;99.90
29571;DHT22;16814;52.118;11.436;2023-06-22T10:41:57;28.50;99.90
29571;DHT22;16814;52.118;11.436;2023-06-22T10:44:24;28.40;99.90
29571;DHT22;16814;52.118;11.436;2023-06-22T10:46:51;28.40;99.90
29571;DHT22;16814;52.118;11.436;2023-06-22T10:49:18;28.60;99.90
29571;DHT22;16814;52.118;11.436;2023-06-22T10:51:45;28.80;99.90
29571;DHT22;16814;52.118;11.436;2023-06-22T10:54:13;28.80;99.90
29571;DHT22;16814;52.118;11.436;2023-06-22T10:56:41;28.90;99.90
29571;DHT22;16814;52.118;11.436;2023-06-22T10:59:08;29.00;99.90
29571;DHT22;16814;52.118;11.436;2023-06-22T11:01:36;28.60;99.90
29571;DHT22;16814;52.118;11.436;2023-06-22T11:04:03;28.30;99.90
29571;DHT22;16814;52.118;11.436;2023-06-22T11:06:30;28.20;99.90
29571;DHT22;16814;52.118;11.436;2023-06-22T11:08:58;28.20;99.90
29571;DHT22;16814;52.118;11.436;2023-06-22T11:11:26;28.60;99.90
29571;DHT22;16814;52.118;11.436;2023-06-22T11:13:56;28.90;99.90
29571;DHT22;16814;52.118;11.436;2023-06-22T11:16:24;29.20;99.90
29571;DHT22;16814;52.118;11.436;2023-06-22T11:18:51;28.90;99.90
29571;DHT22;16814;52.118;11.436;2023-06-22T11:21:19;28.80;99.90
29571;DHT22;16814;52.118;11.436;2023-06-22T11:23:46;28.80;99.90
29571;DHT22;16814;52.118;11.436;2023-06-22T11:26:11;29.10;99.90
29571;DHT22;16814;52.118;11.436;2023-06-22T11:28:39;29.20;99.90
29571;DHT22;16814;52.118;11.436;2023-06-22T11:31:16;29.30;99.90
29571;DHT22;16814;52.118;11.436;2023-06-22T11:33:44;29.40;99.90
29571;DHT22;16814;52.118;11.436;2023-06-22T11:36:12;29.70;99.90
29571;DHT22;16814;52.118;11.436;2023-06-22T11:38:44;29.90;99.90
29571;DHT22;16814;52.118;11.436;2023-06-22T11:41:12;29.70;99.90
29571;DHT22;16814;52.118;11.436;2023-06-22T11:43:40;29.80;99.90
29571;DHT22;16814;52.118;11.436;2023-06-22T11:46:07;29.60;99.90
29571;DHT22;16814;52.118;11.436;2023-06-22T11:48:39;29.70;99.90
29571;DHT22;16814;52.118;11.436;2023-06-22T11:51:06;29.70;99.90
29571;DHT22;16814;52.118;11.436;2023-06-22T11:53:34;29.60;99.90
29571;DHT22;16814;52.118;11.436;2023-06-22T11:56:01;29.60;99.90
29571;DHT22;16814;52.118;11.436;2023-06-22T11:58:28;29.90;99.90
29571;DHT22;16814;52.118;11.436;2023-06-22T12:01:00;29.20;99.90
29571;DHT22;16814;52.118;11.436;2023-06-22T12:03:27;29.10;99.90
29571;DHT22;16814;52.118;11.436;2023-06-22T12:06:05;29.00;99.90
29571;DHT22;16814;52.118;11.436;2023-06-22T12:08:33;28.60;99.90
29571;DHT22;16814;52.118;11.436;2023-06-22T12:10:59;28.30;99.90
29571;DHT22;16814;52.118;11.436;2023-06-22T12:13:26;28.20;99.90
29571;DHT22;16814;52.118;11.436;2023-06-22T12:15:52;28.30;99.90
29571;DHT22;16814;52.118;11.436;2023-06-22T12:18:20;28.40;99.90
29571;DHT22;16814;52.118;11.436;2023-06-22T12:20:47;28.30;99.90
29571;DHT22;16814;52.118;11.436;2023-06-22T12:23:17;28.10;99.90
29571;DHT22;16814;52.118;11.436;2023-06-22T12:25:44;28.20;99.90
29571;DHT22;16814;52.118;11.436;2023-06-22T12:28:11;28.30;99.90
29571;DHT22;16814;52.118;11.436;2023-06-22T12:30:38;28.20;99.90
29571;DHT22;16814;52.118;11.436;2023-06-22T12:33:07;28.00;99.90
29571;DHT22;16814;52.118;11.436;2023-06-22T12:35:33;28.10;99.90
29571;DHT22;16814;52.118;11.436;2023-06-22T12:38:00;28.40;99.90
29571;DHT22;16814;52.118;11.436;2023-06-22T12:40:27;28.20;99.90
29571;DHT22;16814;52.118;11.436;2023-06-22T12:43:03;28.30;99.90
29571;DHT22;16814;52.118;11.436;2023-06-22T12:45:31;28.40;99.90
29571;DHT22;16814;52.118;11.436;2023-06-22T12:48:01;28.20;99.90
29571;DHT22;16814;52.118;11.436;2023-06-22T12:50:29;28.10;99.90
29571;DHT22;16814;52.118;11.436;2023-06-22T12:52:56;28.20;99.90
29571;DHT22;16814;52.118;11.436;2023-06-22T12:55:24;28.10;99.90
29571;DHT22;16814;52.118;11.436;2023-06-22T12:57:51;28.10;99.90
29571;DHT22;16814;52.118;11.436;2023-06-22T13:00:19;28.10;99.90
29571;DHT22;16814;52.118;11.436;2023-06-22T13:02:47;28.20;99.90
29571;DHT22;16814;52.118;11.436;2023-06-22T13:05:14;28.30;99.90
29571;DHT22;16814;52.118;11.436;2023-06-22T13:07:40;28.30;99.90
29571;DHT22;16814;52.118;11.436;2023-06-22T13:10:10;28.20;99.90
29571;DHT22;16814;52.118;11.436;2023-06-22T13:12:36;28.20;99.90
29571;DHT22;16814;52.118;11.436;2023-06-22T13:15:03;28.20;99.90
29571;DHT22;16814;52.118;11.436;2023-06-22T13:17:29;28.30;99.90
29571;DHT22;16814;52.118;11.436;2023-06-22T13:19:56;28.90;99.90
29571;DHT22;16814;52.118;11.436;2023-06-22T13:22:33;28.30;99.90
29571;DHT22;16814;52.118;11.436;2023-06-22T13:25:07;28.00;99.90
29571;DHT22;16814;52.118;11.436;2023-06-22T13:27:36;28.10;99.90
29571;DHT22;16814;52.118;11.436;2023-06-22T13:30:02;28.20;99.90
29571;DHT22;16814;52.118;11.436;2023-06-22T13:32:30;28.20;99.90
29571;DHT22;16814;52.118;11.436;2023-06-22T13:34:57;28.20;99.90
29571;DHT22;16814;52.118;11.436;2023-06-22T13:37:29;28.20;99.90
29571;DHT22;16814;52.118;11.436;2023-06-22T13:39:54;28.30;99.90
29571;DHT22;16814;52.118;11.436;2023-06-22T13:42:23;28.30;99.90
29571;DHT22;16814;52.118;11.436;2023-06-22T13:45:08;28.30;99.90
29571;DHT22;16814;52.118;11.436;2023-06-22T13:47:41;28.30;99.90
29571;DHT22;16814;52.118;11.436;2023-06-22T13:50:08;28.30;99.90
29571;DHT22;16814;52.118;11.436;2023-06-22T13:52:35;28.40;99.90
29571;DHT22;16814;52.118;11.436;2023-06-22T13:55:10;28.50;99.90
29571;DHT22;16814;52.118;11.436;2023-06-22T13:57:37;28.50;99.90
29571;DHT22;16814;52.118;11.436;2023-06-22T14:00:06;28.50;99.90
29571;DHT22;16814;52.118;11.436;2023-06-22T14:02:35;28.40;99.90
29571;DHT22;16814;52.118;11.436;2023-06-22T14:05:02;28.30;99.90
29571;DHT22;16814;52.118;11.436;2023-06-22T14:07:30;28.30;99.90
29571;DHT22;16814;52.118;11.436;2023-06-22T14:09:57;28.30;99.90
29571;DHT22;16814;52.118;11.436;2023-06-22T14:12:27;28.20;99.90
29571;DHT22;16814;52.118;11.436;2023-06-22T14:14:52;28.30;99.90
29571;DHT22;16814;52.118;11.436;2023-06-22T14:17:19;28.20;99.90
29571;DHT22;16814;52.118;11.436;2023-06-22T14:19:53;28.10;99.90
29571;DHT22;16814;52.118;11.436;2023-06-22T14:22:21;28.10;99.90
29571;DHT22;16814;52.118;11.436;2023-06-22T14:24:50;28.10;99.90
29571;DHT22;16814;52.118;11.436;2023-06-22T14:27:17;28.20;99.90
29571;DHT22;16814;52.118;11.436;2023-06-22T14:29:45;28.10;99.90
29571;DHT22;16814;52.118;11.436;2023-06-22T14:32:12;28.10;99.90
29571;DHT22;16814;52.118;11.436;2023-06-22T14:34:39;28.10;99.90
29571;DHT22;16814;52.118;11.436;2023-06-22T14:37:09;28.10;99.90
29571;DHT22;16814;52.118;11.436;2023-06-22T14:39:37;28.00;99.90
29571;DHT22;16814;52.118;11.436;2023-06-22T14:42:02;28.10;99.90
29571;DHT22;16814;52.118;11.436;2023-06-22T14:44:31;28.00;99.90
29571;DHT22;16814;52.118;11.436;2023-06-22T14:46:57;27.90;99.90
29571;DHT22;16814;52.118;11.436;2023-06-22T14:49:30;27.80;99.90
29571;DHT22;16814;52.118;11.436;2023-06-22T14:51:55;27.80;99.90
29571;DHT22;16814;52.118;11.436;2023-06-22T14:54:23;27.60;99.90
29571;DHT22;16814;52.118;11.436;2023-06-22T14:56:53;27.50;99.90
29571;DHT22;16814;52.118;11.436;2023-06-22T14:59:20;27.50;99.90
29571;DHT22;16814;52.118;11.436;2023-06-22T15:01:47;27.60;99.90
29571;DHT22;16814;52.118;11.436;2023-06-22T15:04:17;27.70;99.90
29571;DHT22;16814;52.118;11.436;2023-06-22T15:06:45;27.70;99.90
29571;DHT22;16814;52.118;11.436;2023-06-22T15:09:12;28.50;99.90
29571;DHT22;16814;52.118;11.436;2023-06-22T15:11:39;27.80;99.90
29571;DHT22;16814;52.118;11.436;2023-06-22T15:14:14;27.80;99.90
29571;DHT22;16814;52.118;11.436;2023-06-22T15:16:41;27.70;99.90
29571;DHT22;16814;52.118;11.436;2023-06-22T15:19:07;27.60;99.90
29571;DHT22;16814;52.118;11.436;2023-06-22T15:21:37;27.60;99.90
29571;DHT22;16814;52.118;11.436;2023-06-22T15:24:05;27.40;99.90
29571;DHT22;16814;52.118;11.436;2023-06-22T15:26:32;27.50;99.90